sensor_id;sensor_type;location;lat;lon;timestamp;P1;durP1;ratioP1;P2;durP2;ratioP2
11620;SDS011;5866;49.094;11.900;2023-05-10T00:00:55;3.70;;;3.40;;
11620;SDS011;5866;49.094;11.900;2023-05-10T00:03:22;3.75;;;3.40;;
11620;SDS011;5866;49.094;11.900;2023-05-10T00:05:52;4.10;;;3.38;;
11620;SDS011;5866;49.094;11.900;2023-05-10T00:08:19;3.70;;;3.40;;
11620;SDS011;5866;49.094;11.900;2023-05-10T00:10:47;3.42;;;3.13;;
11620;SDS011;5866;49.094;11.900;2023-05-10T00:13:14;3.78;;;3.45;;
11620;SDS011;5866;49.094;11.900;2023-05-10T00:15:42;5.82;;;4.00;;
11620;SDS011;5866;49.094;11.900;2023-05-10T00:18:10;3.85;;;3.50;;
11620;SDS011;5866;49.094;11.900;2023-05-10T00:20:37;4.18;;;3.70;;
11620;SDS011;5866;49.094;11.900;2023-05-10T00:23:06;4.00;;;3.53;;
11620;SDS011;5866;49.094;11.900;2023-05-10T00:25:34;3.70;;;3.40;;
11620;SDS011;5866;49.094;11.900;2023-05-10T00:28:01;5.40;;;3.60;;
11620;SDS011;5866;49.094;11.900;2023-05-10T00:30:28;3.85;;;3.20;;
11620;SDS011;5866;49.094;11.900;2023-05-10T00:32:56;4.53;;;4.05;;
11620;SDS011;5866;49.094;11.900;2023-05-10T00:35:24;5.75;;;3.60;;
11620;SDS011;5866;49.094;11.900;2023-05-10T00:37:52;4.05;;;3.50;;
11620;SDS011;5866;49.094;11.900;2023-05-10T00:40:21;3.97;;;3.65;;
11620;SDS011;5866;49.094;11.900;2023-05-10T00:42:48;4.88;;;3.78;;
11620;SDS011;5866;49.094;11.900;2023-05-10T00:45:16;3.65;;;3.35;;
11620;SDS011;5866;49.094;11.900;2023-05-10T00:47:43;4.10;;;3.33;;
11620;SDS011;5866;49.094;11.900;2023-05-10T00:50:11;4.18;;;3.85;;
11620;SDS011;5866;49.094;11.900;2023-05-10T00:52:39;5.18;;;3.45;;
11620;SDS011;5866;49.094;11.900;2023-05-10T00:55:08;3.63;;;3.33;;
11620;SDS011;5866;49.094;11.900;2023-05-10T00:57:38;6.18;;;3.90;;
11620;SDS011;5866;49.094;11.900;2023-05-10T01:00:06;3.88;;;3.58;;
11620;SDS011;5866;49.094;11.900;2023-05-10T01:02:37;4.18;;;3.83;;
11620;SDS011;5866;49.094;11.900;2023-05-10T01:05:05;4.80;;;4.15;;
11620;SDS011;5866;49.094;11.900;2023-05-10T01:07:33;4.47;;;4.07;;
11620;SDS011;5866;49.094;11.900;2023-05-10T01:10:01;5.00;;;3.80;;
11620;SDS011;5866;49.094;11.900;2023-05-10T01:12:29;4.53;;;4.13;;
11620;SDS011;5866;49.094;11.900;2023-05-10T01:14:58;4.28;;;3.88;;
11620;SDS011;5866;49.094;11.900;2023-05-10T01:17:27;4.38;;;4.03;;
11620;SDS011;5866;49.094;11.900;2023-05-10T01:19:55;6.80;;;4.10;;
11620;SDS011;5866;49.094;11.900;2023-05-10T01:22:32;5.00;;;4.50;;
11620;SDS011;5866;49.094;11.900;2023-05-10T01:25:19;4.15;;;3.75;;
11620;SDS011;5866;49.094;11.900;2023-05-10T01:28:13;4.57;;;4.22;;
11620;SDS011;5866;49.094;11.900;2023-05-10T01:33:59;7.82;;;4.32;;
11620;SDS011;5866;49.094;11.900;2023-05-10T01:36:35;4.90;;;4.50;;
11620;SDS011;5866;49.094;11.900;2023-05-10T01:39:10;5.78;;;4.90;;
11620;SDS011;5866;49.094;11.900;2023-05-10T01:41:45;4.95;;;4.55;;
11620;SDS011;5866;49.094;11.900;2023-05-10T01:44:18;5.45;;;4.47;;
11620;SDS011;5866;49.094;11.900;2023-05-10T01:46:53;5.28;;;4.85;;
11620;SDS011;5866;49.094;11.900;2023-05-10T01:49:29;5.32;;;4.82;;
11620;SDS011;5866;49.094;11.900;2023-05-10T01:51:59;5.85;;;4.53;;
11620;SDS011;5866;49.094;11.900;2023-05-10T01:54:30;5.57;;;4.25;;
11620;SDS011;5866;49.094;11.900;2023-05-10T01:57:02;5.82;;;4.05;;
11620;SDS011;5866;49.094;11.900;2023-05-10T01:59:34;6.22;;;4.47;;
11620;SDS011;5866;49.094;11.900;2023-05-10T02:02:06;6.53;;;4.47;;
11620;SDS011;5866;49.094;11.900;2023-05-10T02:04:39;5.07;;;4.68;;
11620;SDS011;5866;49.094;11.900;2023-05-10T02:07:08;4.57;;;4.22;;
11620;SDS011;5866;49.094;11.900;2023-05-10T02:09:36;5.93;;;4.05;;
11620;SDS011;5866;49.094;11.900;2023-05-10T02:12:05;4.65;;;4.15;;
11620;SDS011;5866;49.094;11.900;2023-05-10T02:14:35;4.70;;;4.30;;
11620;SDS011;5866;49.094;11.900;2023-05-10T02:17:04;4.55;;;4.15;;
11620;SDS011;5866;49.094;11.900;2023-05-10T02:19:34;5.38;;;4.88;;
11620;SDS011;5866;49.094;11.900;2023-05-10T02:22:06;9.48;;;4.63;;
11620;SDS011;5866;49.094;11.900;2023-05-10T02:24:35;5.15;;;4.35;;
11620;SDS011;5866;49.094;11.900;2023-05-10T02:27:04;5.30;;;4.80;;
11620;SDS011;5866;49.094;11.900;2023-05-10T02:29:33;5.22;;;4.72;;
11620;SDS011;5866;49.094;11.900;2023-05-10T02:32:01;5.88;;;4.68;;
11620;SDS011;5866;49.094;11.900;2023-05-10T02:34:30;5.45;;;4.95;;
11620;SDS011;5866;49.094;11.900;2023-05-10T02:36:59;5.57;;;5.07;;
11620;SDS011;5866;49.094;11.900;2023-05-10T02:39:29;4.97;;;4.57;;
11620;SDS011;5866;49.094;11.900;2023-05-10T02:41:58;5.78;;;5.22;;
11620;SDS011;5866;49.094;11.900;2023-05-10T02:44:27;5.93;;;5.18;;
11620;SDS011;5866;49.094;11.900;2023-05-10T02:46:57;5.38;;;4.88;;
11620;SDS011;5866;49.094;11.900;2023-05-10T02:49:25;7.18;;;5.10;;
11620;SDS011;5866;49.094;11.900;2023-05-10T02:51:55;5.85;;;5.35;;
11620;SDS011;5866;49.094;11.900;2023-05-10T02:54:26;6.80;;;5.75;;
11620;SDS011;5866;49.094;11.900;2023-05-10T02:57:04;5.78;;;5.28;;
11620;SDS011;5866;49.094;11.900;2023-05-10T02:59:33;6.03;;;5.25;;
11620;SDS011;5866;49.094;11.900;2023-05-10T03:02:00;5.53;;;5.03;;
11620;SDS011;5866;49.094;11.900;2023-05-10T03:04:30;7.13;;;5.35;;
11620;SDS011;5866;49.094;11.900;2023-05-10T03:06:57;6.50;;;5.30;;
11620;SDS011;5866;49.094;11.900;2023-05-10T03:09:25;6.03;;;5.50;;
11620;SDS011;5866;49.094;11.900;2023-05-10T03:11:55;5.72;;;5.13;;
11620;SDS011;5866;49.094;11.900;2023-05-10T03:14:32;6.30;;;5.68;;
11620;SDS011;5866;49.094;11.900;2023-05-10T03:17:15;6.25;;;5.70;;
11620;SDS011;5866;49.094;11.900;2023-05-10T03:19:53;6.50;;;5.90;;
11620;SDS011;5866;49.094;11.900;2023-05-10T03:22:23;6.47;;;5.70;;
11620;SDS011;5866;49.094;11.900;2023-05-10T03:24:53;9.07;;;6.25;;
11620;SDS011;5866;49.094;11.900;2023-05-10T03:27:23;8.15;;;5.85;;
11620;SDS011;5866;49.094;11.900;2023-05-10T03:29:54;6.82;;;5.80;;
11620;SDS011;5866;49.094;11.900;2023-05-10T03:32:23;7.10;;;6.40;;
11620;SDS011;5866;49.094;11.900;2023-05-10T03:34:50;7.53;;;6.40;;
11620;SDS011;5866;49.094;11.900;2023-05-10T03:37:18;7.55;;;6.75;;
11620;SDS011;5866;49.094;11.900;2023-05-10T03:39:45;7.38;;;6.65;;
11620;SDS011;5866;49.094;11.900;2023-05-10T03:42:13;7.57;;;6.60;;
11620;SDS011;5866;49.094;11.900;2023-05-10T03:44:40;7.45;;;6.75;;
11620;SDS011;5866;49.094;11.900;2023-05-10T03:47:09;6.80;;;6.20;;
11620;SDS011;5866;49.094;11.900;2023-05-10T03:49:36;7.32;;;6.63;;
11620;SDS011;5866;49.094;11.900;2023-05-10T03:52:04;7.95;;;7.13;;
11620;SDS011;5866;49.094;11.900;2023-05-10T03:54:32;7.68;;;6.97;;
11620;SDS011;5866;49.094;11.900;2023-05-10T03:57:00;8.13;;;7.43;;
11620;SDS011;5866;49.094;11.900;2023-05-10T03:59:29;8.70;;;7.45;;
11620;SDS011;5866;49.094;11.900;2023-05-10T04:01:56;7.32;;;6.63;;
11620;SDS011;5866;49.094;11.900;2023-05-10T04:04:25;7.72;;;6.93;;
11620;SDS011;5866;49.094;11.900;2023-05-10T04:06:52;8.32;;;7.60;;
11620;SDS011;5866;49.094;11.900;2023-05-10T04:09:20;11.68;;;7.60;;
11620;SDS011;5866;49.094;11.900;2023-05-10T04:11:48;8.38;;;7.55;;
11620;SDS011;5866;49.094;11.900;2023-05-10T04:14:16;8.55;;;7.70;;
11620;SDS011;5866;49.094;11.900;2023-05-10T04:16:43;7.72;;;7.03;;
11620;SDS011;5866;49.094;11.900;2023-05-10T04:19:11;9.23;;;7.65;;
11620;SDS011;5866;49.094;11.900;2023-05-10T04:21:39;8.60;;;7.63;;
11620;SDS011;5866;49.094;11.900;2023-05-10T04:24:07;8.88;;;7.97;;
11620;SDS011;5866;49.094;11.900;2023-05-10T04:26:34;9.57;;;8.25;;
11620;SDS011;5866;49.094;11.900;2023-05-10T04:29:02;10.02;;;8.70;;
11620;SDS011;5866;49.094;11.900;2023-05-10T04:31:29;10.10;;;9.02;;
11620;SDS011;5866;49.094;11.900;2023-05-10T04:33:57;10.00;;;9.00;;
11620;SDS011;5866;49.094;11.900;2023-05-10T04:36:24;9.50;;;8.60;;
11620;SDS011;5866;49.094;11.900;2023-05-10T04:38:53;9.60;;;8.35;;
11620;SDS011;5866;49.094;11.900;2023-05-10T04:41:21;13.13;;;9.07;;
11620;SDS011;5866;49.094;11.900;2023-05-10T04:43:48;9.88;;;8.98;;
11620;SDS011;5866;49.094;11.900;2023-05-10T04:46:16;10.15;;;8.93;;
11620;SDS011;5866;49.094;11.900;2023-05-10T04:48:43;10.52;;;9.43;;
11620;SDS011;5866;49.094;11.900;2023-05-10T04:51:11;9.27;;;8.38;;
11620;SDS011;5866;49.094;11.900;2023-05-10T04:53:38;12.93;;;9.88;;
11620;SDS011;5866;49.094;11.900;2023-05-10T04:56:11;10.73;;;9.70;;
11620;SDS011;5866;49.094;11.900;2023-05-10T04:58:38;10.52;;;9.38;;
11620;SDS011;5866;49.094;11.900;2023-05-10T05:01:06;12.40;;;9.90;;
11620;SDS011;5866;49.094;11.900;2023-05-10T05:03:34;11.43;;;10.27;;
11620;SDS011;5866;49.094;11.900;2023-05-10T05:06:02;11.85;;;10.27;;
11620;SDS011;5866;49.094;11.900;2023-05-10T05:08:30;11.05;;;9.90;;
11620;SDS011;5866;49.094;11.900;2023-05-10T05:10:58;11.48;;;9.57;;
11620;SDS011;5866;49.094;11.900;2023-05-10T05:13:26;12.13;;;9.52;;
11620;SDS011;5866;49.094;11.900;2023-05-10T05:15:54;10.88;;;9.48;;
11620;SDS011;5866;49.094;11.900;2023-05-10T05:18:22;12.70;;;10.60;;
11620;SDS011;5866;49.094;11.900;2023-05-10T05:20:49;12.63;;;9.80;;
11620;SDS011;5866;49.094;11.900;2023-05-10T05:23:17;10.18;;;9.15;;
11620;SDS011;5866;49.094;11.900;2023-05-10T05:25:46;10.05;;;9.05;;
11620;SDS011;5866;49.094;11.900;2023-05-10T05:28:14;10.40;;;8.02;;
11620;SDS011;5866;49.094;11.900;2023-05-10T05:30:43;9.90;;;8.05;;
11620;SDS011;5866;49.094;11.900;2023-05-10T05:33:10;7.53;;;6.82;;
11620;SDS011;5866;49.094;11.900;2023-05-10T05:35:38;8.43;;;7.38;;
11620;SDS011;5866;49.094;11.900;2023-05-10T05:38:05;7.28;;;6.57;;
11620;SDS011;5866;49.094;11.900;2023-05-10T05:40:33;6.32;;;4.88;;
11620;SDS011;5866;49.094;11.900;2023-05-10T05:43:00;6.30;;;5.70;;
11620;SDS011;5866;49.094;11.900;2023-05-10T05:45:28;6.13;;;5.53;;
11620;SDS011;5866;49.094;11.900;2023-05-10T05:47:57;5.28;;;4.88;;
11620;SDS011;5866;49.094;11.900;2023-05-10T05:50:25;5.22;;;4.78;;
11620;SDS011;5866;49.094;11.900;2023-05-10T05:52:52;5.07;;;4.60;;
11620;SDS011;5866;49.094;11.900;2023-05-10T05:55:20;5.35;;;4.85;;
11620;SDS011;5866;49.094;11.900;2023-05-10T05:57:47;4.75;;;4.32;;
11620;SDS011;5866;49.094;11.900;2023-05-10T06:00:15;3.92;;;3.63;;
11620;SDS011;5866;49.094;11.900;2023-05-10T06:02:43;3.58;;;3.28;;
11620;SDS011;5866;49.094;11.900;2023-05-10T06:05:12;5.07;;;4.30;;
11620;SDS011;5866;49.094;11.900;2023-05-10T06:07:40;6.38;;;3.33;;
11620;SDS011;5866;49.094;11.900;2023-05-10T06:10:09;3.20;;;3.00;;
11620;SDS011;5866;49.094;11.900;2023-05-10T06:12:36;3.92;;;3.53;;
11620;SDS011;5866;49.094;11.900;2023-05-10T06:15:04;3.05;;;2.85;;
11620;SDS011;5866;49.094;11.900;2023-05-10T06:17:32;6.32;;;2.92;;
11620;SDS011;5866;49.094;11.900;2023-05-10T06:20:00;2.78;;;2.58;;
11620;SDS011;5866;49.094;11.900;2023-05-10T06:22:29;2.30;;;2.20;;
11620;SDS011;5866;49.094;11.900;2023-05-10T06:24:56;2.60;;;2.40;;
11620;SDS011;5866;49.094;11.900;2023-05-10T06:27:24;2.22;;;2.13;;
11620;SDS011;5866;49.094;11.900;2023-05-10T06:29:52;2.85;;;2.47;;
11620;SDS011;5866;49.094;11.900;2023-05-10T06:32:30;2.78;;;2.67;;
11620;SDS011;5866;49.094;11.900;2023-05-10T06:34:58;2.53;;;2.42;;
11620;SDS011;5866;49.094;11.900;2023-05-10T06:37:25;2.78;;;2.60;;
11620;SDS011;5866;49.094;11.900;2023-05-10T06:39:54;2.20;;;2.10;;
11620;SDS011;5866;49.094;11.900;2023-05-10T06:42:22;2.70;;;2.50;;
11620;SDS011;5866;49.094;11.900;2023-05-10T06:44:51;2.15;;;2.05;;
11620;SDS011;5866;49.094;11.900;2023-05-10T06:47:19;3.17;;;2.97;;
11620;SDS011;5866;49.094;11.900;2023-05-10T06:49:46;3.17;;;3.00;;
11620;SDS011;5866;49.094;11.900;2023-05-10T06:52:14;2.92;;;2.65;;
11620;SDS011;5866;49.094;11.900;2023-05-10T06:54:41;2.78;;;2.60;;
11620;SDS011;5866;49.094;11.900;2023-05-10T06:57:10;2.95;;;2.75;;
11620;SDS011;5866;49.094;11.900;2023-05-10T06:59:56;3.25;;;3.05;;
11620;SDS011;5866;49.094;11.900;2023-05-10T07:02:23;3.17;;;2.88;;
11620;SDS011;5866;49.094;11.900;2023-05-10T07:04:51;3.33;;;3.03;;
11620;SDS011;5866;49.094;11.900;2023-05-10T07:07:19;2.67;;;2.58;;
11620;SDS011;5866;49.094;11.900;2023-05-10T07:09:46;3.55;;;2.78;;
11620;SDS011;5866;49.094;11.900;2023-05-10T07:12:17;3.10;;;2.90;;
11620;SDS011;5866;49.094;11.900;2023-05-10T07:14:44;2.60;;;2.50;;
11620;SDS011;5866;49.094;11.900;2023-05-10T07:17:12;2.53;;;2.42;;
11620;SDS011;5866;49.094;11.900;2023-05-10T07:19:40;1.95;;;1.85;;
11620;SDS011;5866;49.094;11.900;2023-05-10T07:22:07;2.10;;;2.00;;
11620;SDS011;5866;49.094;11.900;2023-05-10T07:24:35;2.10;;;2.00;;
11620;SDS011;5866;49.094;11.900;2023-05-10T07:27:02;1.90;;;1.80;;
11620;SDS011;5866;49.094;11.900;2023-05-10T07:29:32;2.08;;;1.98;;
11620;SDS011;5866;49.094;11.900;2023-05-10T07:31:59;2.10;;;2.00;;
11620;SDS011;5866;49.094;11.900;2023-05-10T07:34:27;2.03;;;1.70;;
11620;SDS011;5866;49.094;11.900;2023-05-10T07:36:58;2.00;;;1.90;;
11620;SDS011;5866;49.094;11.900;2023-05-10T07:39:26;2.38;;;2.00;;
11620;SDS011;5866;49.094;11.900;2023-05-10T07:41:53;1.98;;;1.88;;
11620;SDS011;5866;49.094;11.900;2023-05-10T07:44:21;2.30;;;2.20;;
11620;SDS011;5866;49.094;11.900;2023-05-10T07:46:51;2.08;;;1.98;;
11620;SDS011;5866;49.094;11.900;2023-05-10T07:49:18;2.40;;;2.30;;
11620;SDS011;5866;49.094;11.900;2023-05-10T07:51:46;2.10;;;2.00;;
11620;SDS011;5866;49.094;11.900;2023-05-10T07:54:14;2.58;;;2.47;;
11620;SDS011;5866;49.094;11.900;2023-05-10T07:56:41;2.10;;;2.00;;
11620;SDS011;5866;49.094;11.900;2023-05-10T07:59:14;2.03;;;1.92;;
11620;SDS011;5866;49.094;11.900;2023-05-10T08:01:43;2.20;;;2.10;;
11620;SDS011;5866;49.094;11.900;2023-05-10T08:04:12;2.60;;;2.03;;
11620;SDS011;5866;49.094;11.900;2023-05-10T08:06:39;2.20;;;2.00;;
11620;SDS011;5866;49.094;11.900;2023-05-10T08:09:07;2.50;;;2.30;;
11620;SDS011;5866;49.094;11.900;2023-05-10T08:11:35;2.33;;;2.13;;
11620;SDS011;5866;49.094;11.900;2023-05-10T08:14:02;2.42;;;2.20;;
11620;SDS011;5866;49.094;11.900;2023-05-10T08:16:30;1.92;;;1.83;;
11620;SDS011;5866;49.094;11.900;2023-05-10T08:18:58;1.50;;;1.40;;
11620;SDS011;5866;49.094;11.900;2023-05-10T08:21:27;2.40;;;1.50;;
11620;SDS011;5866;49.094;11.900;2023-05-10T08:23:55;2.53;;;2.00;;
11620;SDS011;5866;49.094;11.900;2023-05-10T08:26:22;1.75;;;1.65;;
11620;SDS011;5866;49.094;11.900;2023-05-10T08:28:50;1.65;;;1.55;;
11620;SDS011;5866;49.094;11.900;2023-05-10T08:31:17;1.60;;;1.50;;
11620;SDS011;5866;49.094;11.900;2023-05-10T08:33:45;1.58;;;1.48;;
11620;SDS011;5866;49.094;11.900;2023-05-10T08:36:12;1.75;;;1.65;;
11620;SDS011;5866;49.094;11.900;2023-05-10T08:38:47;1.80;;;1.70;;
11620;SDS011;5866;49.094;11.900;2023-05-10T08:41:16;1.83;;;1.73;;
11620;SDS011;5866;49.094;11.900;2023-05-10T08:43:44;2.00;;;1.90;;
11620;SDS011;5866;49.094;11.900;2023-05-10T08:46:13;1.85;;;1.75;;
11620;SDS011;5866;49.094;11.900;2023-05-10T08:48:44;2.85;;;1.67;;
11620;SDS011;5866;49.094;11.900;2023-05-10T08:51:13;2.00;;;1.90;;
11620;SDS011;5866;49.094;11.900;2023-05-10T08:53:42;1.60;;;1.50;;
11620;SDS011;5866;49.094;11.900;2023-05-10T08:56:12;1.70;;;1.60;;
11620;SDS011;5866;49.094;11.900;2023-05-10T08:58:41;1.63;;;1.52;;
11620;SDS011;5866;49.094;11.900;2023-05-10T09:01:09;2.10;;;1.90;;
11620;SDS011;5866;49.094;11.900;2023-05-10T09:03:37;1.80;;;1.70;;
11620;SDS011;5866;49.094;11.900;2023-05-10T09:06:05;2.05;;;1.95;;
11620;SDS011;5866;49.094;11.900;2023-05-10T09:08:33;2.03;;;1.92;;
11620;SDS011;5866;49.094;11.900;2023-05-10T09:11:03;2.00;;;1.90;;
11620;SDS011;5866;49.094;11.900;2023-05-10T09:13:32;1.83;;;1.70;;
11620;SDS011;5866;49.094;11.900;2023-05-10T09:16:00;2.05;;;1.95;;
11620;SDS011;5866;49.094;11.900;2023-05-10T09:18:46;1.88;;;1.77;;
11620;SDS011;5866;49.094;11.900;2023-05-10T09:21:13;1.77;;;1.67;;
11620;SDS011;5866;49.094;11.900;2023-05-10T09:23:42;2.58;;;1.80;;
11620;SDS011;5866;49.094;11.900;2023-05-10T09:26:13;2.05;;;1.95;;
11620;SDS011;5866;49.094;11.900;2023-05-10T09:28:51;1.70;;;1.60;;
11620;SDS011;5866;49.094;11.900;2023-05-10T09:31:19;1.92;;;1.73;;
11620;SDS011;5866;49.094;11.900;2023-05-10T09:33:47;1.90;;;1.80;;
11620;SDS011;5866;49.094;11.900;2023-05-10T09:36:15;1.83;;;1.70;;
11620;SDS011;5866;49.094;11.900;2023-05-10T09:38:47;1.92;;;1.67;;
11620;SDS011;5866;49.094;11.900;2023-05-10T09:41:18;2.00;;;1.90;;
11620;SDS011;5866;49.094;11.900;2023-05-10T09:43:46;1.50;;;1.40;;
11620;SDS011;5866;49.094;11.900;2023-05-10T09:46:15;2.60;;;1.70;;
11620;SDS011;5866;49.094;11.900;2023-05-10T09:48:43;1.90;;;1.80;;
11620;SDS011;5866;49.094;11.900;2023-05-10T09:51:18;1.70;;;1.60;;
11620;SDS011;5866;49.094;11.900;2023-05-10T09:53:47;1.90;;;1.80;;
11620;SDS011;5866;49.094;11.900;2023-05-10T09:59:03;2.00;;;1.90;;
11620;SDS011;5866;49.094;11.900;2023-05-10T10:01:32;2.25;;;1.80;;
11620;SDS011;5866;49.094;11.900;2023-05-10T10:04:02;2.00;;;1.80;;
11620;SDS011;5866;49.094;11.900;2023-05-10T10:06:34;1.92;;;1.83;;
11620;SDS011;5866;49.094;11.900;2023-05-10T10:09:02;1.80;;;1.70;;
11620;SDS011;5866;49.094;11.900;2023-05-10T10:11:30;1.60;;;1.50;;
11620;SDS011;5866;49.094;11.900;2023-05-10T10:13:58;2.00;;;1.90;;
11620;SDS011;5866;49.094;11.900;2023-05-10T10:16:26;1.70;;;1.60;;
11620;SDS011;5866;49.094;11.900;2023-05-10T10:18:57;1.58;;;1.40;;
11620;SDS011;5866;49.094;11.900;2023-05-10T10:21:25;2.75;;;1.20;;
11620;SDS011;5866;49.094;11.900;2023-05-10T10:23:53;1.77;;;1.20;;
11620;SDS011;5866;49.094;11.900;2023-05-10T10:26:22;1.20;;;1.20;;
11620;SDS011;5866;49.094;11.900;2023-05-10T10:28:51;1.77;;;1.60;;
11620;SDS011;5866;49.094;11.900;2023-05-10T10:31:27;2.08;;;1.98;;
11620;SDS011;5866;49.094;11.900;2023-05-10T10:34:05;3.72;;;2.20;;
11620;SDS011;5866;49.094;11.900;2023-05-10T10:36:39;1.85;;;1.75;;
11620;SDS011;5866;49.094;11.900;2023-05-10T10:39:08;1.85;;;1.75;;
11620;SDS011;5866;49.094;11.900;2023-05-10T10:41:38;2.42;;;2.33;;
11620;SDS011;5866;49.094;11.900;2023-05-10T10:44:22;2.10;;;2.00;;
11620;SDS011;5866;49.094;11.900;2023-05-10T10:50:03;2.30;;;2.20;;
11620;SDS011;5866;49.094;11.900;2023-05-10T10:52:33;2.70;;;2.60;;
11620;SDS011;5866;49.094;11.900;2023-05-10T10:55:02;3.65;;;2.30;;
11620;SDS011;5866;49.094;11.900;2023-05-10T10:57:31;2.08;;;1.98;;
11620;SDS011;5866;49.094;11.900;2023-05-10T11:02:51;1.95;;;1.85;;
11620;SDS011;5866;49.094;11.900;2023-05-10T11:05:26;2.40;;;2.30;;
11620;SDS011;5866;49.094;11.900;2023-05-10T11:08:06;1.92;;;1.83;;
11620;SDS011;5866;49.094;11.900;2023-05-10T11:10:39;1.85;;;1.75;;
11620;SDS011;5866;49.094;11.900;2023-05-10T11:13:08;2.05;;;1.95;;
11620;SDS011;5866;49.094;11.900;2023-05-10T11:15:37;3.28;;;2.00;;
11620;SDS011;5866;49.094;11.900;2023-05-10T11:18:18;2.63;;;2.53;;
11620;SDS011;5866;49.094;11.900;2023-05-10T11:20:51;2.10;;;2.00;;
11620;SDS011;5866;49.094;11.900;2023-05-10T11:23:19;2.67;;;2.58;;
11620;SDS011;5866;49.094;11.900;2023-05-10T11:25:47;3.95;;;2.30;;
11620;SDS011;5866;49.094;11.900;2023-05-10T11:28:16;1.70;;;1.60;;
11620;SDS011;5866;49.094;11.900;2023-05-10T11:30:45;1.60;;;1.50;;
11620;SDS011;5866;49.094;11.900;2023-05-10T11:33:16;1.65;;;1.55;;
11620;SDS011;5866;49.094;11.900;2023-05-10T11:35:45;1.70;;;1.60;;
11620;SDS011;5866;49.094;11.900;2023-05-10T11:38:14;1.50;;;1.40;;
11620;SDS011;5866;49.094;11.900;2023-05-10T11:40:42;1.70;;;1.60;;
11620;SDS011;5866;49.094;11.900;2023-05-10T11:43:10;1.70;;;1.42;;
11620;SDS011;5866;49.094;11.900;2023-05-10T11:45:39;1.73;;;1.63;;
11620;SDS011;5866;49.094;11.900;2023-05-10T11:48:08;2.15;;;1.50;;
11620;SDS011;5866;49.094;11.900;2023-05-10T11:50:35;1.35;;;1.25;;
11620;SDS011;5866;49.094;11.900;2023-05-10T11:53:03;1.60;;;1.50;;
11620;SDS011;5866;49.094;11.900;2023-05-10T11:55:34;1.83;;;1.40;;
11620;SDS011;5866;49.094;11.900;2023-05-10T11:58:01;1.60;;;1.50;;
11620;SDS011;5866;49.094;11.900;2023-05-10T12:00:29;1.70;;;1.60;;
11620;SDS011;5866;49.094;11.900;2023-05-10T12:02:58;1.70;;;1.60;;
11620;SDS011;5866;49.094;11.900;2023-05-10T12:05:27;2.83;;;1.98;;
11620;SDS011;5866;49.094;11.900;2023-05-10T12:08:10;2.60;;;2.45;;
11620;SDS011;5866;49.094;11.900;2023-05-10T12:10:39;2.53;;;2.33;;
11620;SDS011;5866;49.094;11.900;2023-05-10T12:13:10;2.03;;;1.92;;
11620;SDS011;5866;49.094;11.900;2023-05-10T12:15:39;1.85;;;1.75;;
11620;SDS011;5866;49.094;11.900;2023-05-10T12:18:07;2.10;;;1.80;;
11620;SDS011;5866;49.094;11.900;2023-05-10T12:20:36;2.80;;;1.83;;
11620;SDS011;5866;49.094;11.900;2023-05-10T12:23:04;2.75;;;1.80;;
11620;SDS011;5866;49.094;11.900;2023-05-10T12:25:33;2.97;;;1.50;;
11620;SDS011;5866;49.094;11.900;2023-05-10T12:28:04;2.17;;;1.70;;
11620;SDS011;5866;49.094;11.900;2023-05-10T12:30:33;2.03;;;1.67;;
11620;SDS011;5866;49.094;11.900;2023-05-10T12:33:02;2.47;;;2.10;;
11620;SDS011;5866;49.094;11.900;2023-05-10T12:35:42;2.20;;;2.10;;
11620;SDS011;5866;49.094;11.900;2023-05-10T12:38:24;2.75;;;2.47;;
11620;SDS011;5866;49.094;11.900;2023-05-10T12:40:57;2.35;;;1.73;;
11620;SDS011;5866;49.094;11.900;2023-05-10T12:43:26;2.33;;;1.70;;
11620;SDS011;5866;49.094;11.900;2023-05-10T12:45:54;1.90;;;1.70;;
11620;SDS011;5866;49.094;11.900;2023-05-10T12:48:22;2.42;;;1.70;;
11620;SDS011;5866;49.094;11.900;2023-05-10T12:50:50;1.67;;;1.58;;
11620;SDS011;5866;49.094;11.900;2023-05-10T12:53:17;2.25;;;1.73;;
11620;SDS011;5866;49.094;11.900;2023-05-10T12:55:45;1.80;;;1.67;;
11620;SDS011;5866;49.094;11.900;2023-05-10T12:58:12;2.83;;;2.42;;
11620;SDS011;5866;49.094;11.900;2023-05-10T13:01:01;1.77;;;1.67;;
11620;SDS011;5866;49.094;11.900;2023-05-10T13:03:29;1.98;;;1.88;;
11620;SDS011;5866;49.094;11.900;2023-05-10T13:05:56;2.60;;;2.13;;
11620;SDS011;5866;49.094;11.900;2023-05-10T13:08:24;2.50;;;2.30;;
11620;SDS011;5866;49.094;11.900;2023-05-10T13:10:51;2.55;;;2.10;;
11620;SDS011;5866;49.094;11.900;2023-05-10T13:13:19;2.83;;;2.17;;
11620;SDS011;5866;49.094;11.900;2023-05-10T13:15:46;4.20;;;2.08;;
11620;SDS011;5866;49.094;11.900;2023-05-10T13:18:15;2.40;;;2.20;;
11620;SDS011;5866;49.094;11.900;2023-05-10T13:20:43;2.40;;;2.22;;
11620;SDS011;5866;49.094;11.900;2023-05-10T13:23:11;2.30;;;2.10;;
11620;SDS011;5866;49.094;11.900;2023-05-10T13:25:38;2.40;;;2.30;;
11620;SDS011;5866;49.094;11.900;2023-05-10T13:28:06;1.88;;;1.70;;
11620;SDS011;5866;49.094;11.900;2023-05-10T13:30:33;2.50;;;1.80;;
11620;SDS011;5866;49.094;11.900;2023-05-10T13:33:01;2.00;;;1.90;;
11620;SDS011;5866;49.094;11.900;2023-05-10T13:35:30;2.38;;;2.00;;
11620;SDS011;5866;49.094;11.900;2023-05-10T13:37:57;2.60;;;2.40;;
11620;SDS011;5866;49.094;11.900;2023-05-10T13:40:25;2.70;;;2.50;;
11620;SDS011;5866;49.094;11.900;2023-05-10T13:42:52;2.58;;;2.38;;
11620;SDS011;5866;49.094;11.900;2023-05-10T13:45:20;3.17;;;2.10;;
11620;SDS011;5866;49.094;11.900;2023-05-10T13:47:47;2.25;;;2.13;;
11620;SDS011;5866;49.094;11.900;2023-05-10T13:50:15;2.20;;;2.10;;
11620;SDS011;5866;49.094;11.900;2023-05-10T13:52:44;2.33;;;2.13;;
11620;SDS011;5866;49.094;11.900;2023-05-10T13:55:12;2.30;;;2.20;;
11620;SDS011;5866;49.094;11.900;2023-05-10T13:57:40;2.78;;;2.17;;
11620;SDS011;5866;49.094;11.900;2023-05-10T14:00:09;2.58;;;2.38;;
11620;SDS011;5866;49.094;11.900;2023-05-10T14:02:37;2.58;;;2.38;;
11620;SDS011;5866;49.094;11.900;2023-05-10T14:05:05;2.13;;;1.98;;
11620;SDS011;5866;49.094;11.900;2023-05-10T14:07:33;2.95;;;2.17;;
11620;SDS011;5866;49.094;11.900;2023-05-10T14:10:02;3.03;;;2.40;;
11620;SDS011;5866;49.094;11.900;2023-05-10T14:12:29;3.35;;;2.17;;
11620;SDS011;5866;49.094;11.900;2023-05-10T14:14:57;2.50;;;2.30;;
11620;SDS011;5866;49.094;11.900;2023-05-10T14:17:25;2.88;;;2.47;;
11620;SDS011;5866;49.094;11.900;2023-05-10T14:19:52;2.58;;;2.38;;
11620;SDS011;5866;49.094;11.900;2023-05-10T14:22:20;3.72;;;2.58;;
11620;SDS011;5866;49.094;11.900;2023-05-10T14:24:48;2.85;;;2.17;;
11620;SDS011;5866;49.094;11.900;2023-05-10T14:27:17;3.03;;;2.72;;
11620;SDS011;5866;49.094;11.900;2023-05-10T14:29:45;2.70;;;2.50;;
11620;SDS011;5866;49.094;11.900;2023-05-10T14:32:13;2.33;;;2.13;;
11620;SDS011;5866;49.094;11.900;2023-05-10T14:34:40;2.17;;;2.00;;
11620;SDS011;5866;49.094;11.900;2023-05-10T14:37:09;2.45;;;2.25;;
11620;SDS011;5866;49.094;11.900;2023-05-10T14:39:37;2.60;;;2.50;;
11620;SDS011;5866;49.094;11.900;2023-05-10T14:42:05;4.60;;;2.30;;
11620;SDS011;5866;49.094;11.900;2023-05-10T14:44:34;4.80;;;2.92;;
11620;SDS011;5866;49.094;11.900;2023-05-10T14:47:01;3.83;;;2.60;;
11620;SDS011;5866;49.094;11.900;2023-05-10T14:49:29;3.03;;;2.83;;
11620;SDS011;5866;49.094;11.900;2023-05-10T14:51:56;3.40;;;3.10;;
11620;SDS011;5866;49.094;11.900;2023-05-10T14:54:24;4.90;;;4.05;;
11620;SDS011;5866;49.094;11.900;2023-05-10T14:56:52;4.30;;;3.92;;
11620;SDS011;5866;49.094;11.900;2023-05-10T14:59:20;4.45;;;4.03;;
11620;SDS011;5866;49.094;11.900;2023-05-10T15:01:49;3.17;;;2.83;;
11620;SDS011;5866;49.094;11.900;2023-05-10T15:04:17;3.33;;;3.03;;
11620;SDS011;5866;49.094;11.900;2023-05-10T15:06:45;4.55;;;3.08;;
11620;SDS011;5866;49.094;11.900;2023-05-10T15:09:12;2.97;;;2.70;;
11620;SDS011;5866;49.094;11.900;2023-05-10T15:11:41;4.85;;;3.10;;